createdAt,value
2019-03-23T00:00:24.827Z,63.00
2019-03-23T00:02:54.078Z,62.97
2019-03-23T00:05:23.221Z,61.43
2019-03-23T00:07:52.391Z,56.30
2019-03-23T00:10:21.537Z,48.23
2019-03-23T00:12:50.737Z,52.20
2019-03-23T00:15:19.985Z,50.20
2019-03-23T00:17:49.277Z,47.90
2019-03-23T00:20:18.474Z,48.70
2019-03-23T00:22:47.661Z,56.33
2019-03-23T00:25:16.915Z,54.97
2019-03-23T00:27:46.139Z,52.17
2019-03-23T00:30:15.580Z,54.97
2019-03-23T00:32:44.722Z,57.47
2019-03-23T00:35:13.941Z,49.20
2019-03-23T00:37:43.049Z,54.77
2019-03-23T00:40:12.360Z,54.43
2019-03-23T00:42:41.571Z,47.73
2019-03-23T00:45:11.345Z,50.70
2019-03-23T00:47:40.494Z,50.27
2019-03-23T00:50:10.002Z,46.73
2019-03-23T00:52:39.203Z,41.43
2019-03-23T00:55:08.822Z,40.20
2019-03-23T00:57:38.955Z,48.17
2019-03-23T01:00:13.489Z,48.37
2019-03-23T01:02:42.699Z,49.43
2019-03-23T01:05:12.794Z,53.13
2019-03-23T01:07:42.060Z,56.70
2019-03-23T01:10:12.378Z,52.67
2019-03-23T01:12:41.580Z,51.20
2019-03-23T01:15:12.618Z,48.93
2019-03-23T01:17:41.827Z,44.03
2019-03-23T01:20:12.550Z,49.23
2019-03-23T01:22:41.873Z,44.87
2019-03-23T01:25:11.812Z,50.07
2019-03-23T01:27:41.049Z,51.00
2019-03-23T01:30:12.685Z,51.17
2019-03-23T01:32:41.812Z,52.90
2019-03-23T01:35:11.883Z,49.17
2019-03-23T01:37:41.118Z,46.97
2019-03-23T01:40:10.637Z,52.27
2019-03-23T01:42:39.765Z,51.20
2019-03-23T01:45:11.590Z,49.33
2019-03-23T01:47:40.793Z,45.17
2019-03-23T01:50:11.521Z,49.63
2019-03-23T01:52:40.769Z,49.40
2019-03-23T01:55:10.791Z,44.07
2019-03-23T01:57:39.867Z,42.83
2019-03-23T02:00:11.687Z,43.73
2019-03-23T02:02:40.937Z,48.07
2019-03-23T02:05:10.530Z,44.00
2019-03-23T02:07:39.772Z,46.13
2019-03-23T02:10:10.770Z,41.87
2019-03-23T02:12:39.976Z,44.70
2019-03-23T02:15:11.221Z,42.83
2019-03-23T02:17:40.421Z,43.80
2019-03-23T02:20:11.652Z,51.43
2019-03-23T02:22:40.887Z,48.83
2019-03-23T02:25:10.497Z,45.53
2019-03-23T02:27:39.710Z,42.63
2019-03-23T02:30:11.045Z,47.47
2019-03-23T02:32:40.172Z,45.90
2019-03-23T02:35:09.590Z,45.93
2019-03-23T02:37:38.838Z,39.53
2019-03-23T02:40:10.130Z,43.63
2019-03-23T02:42:39.272Z,40.23
2019-03-23T02:45:10.926Z,36.97
2019-03-23T02:47:40.152Z,39.53
2019-03-23T02:50:10.495Z,43.27
2019-03-23T02:52:39.790Z,39.20
2019-03-23T02:55:10.977Z,40.07
2019-03-23T02:57:40.486Z,40.37
2019-03-23T03:00:14.669Z,37.70
2019-03-23T03:02:43.808Z,43.23
2019-03-23T03:05:13.718Z,48.00
2019-03-23T03:07:43.948Z,55.73
2019-03-23T03:10:22.223Z,53.93
2019-03-23T03:12:51.322Z,52.57
2019-03-23T03:15:20.583Z,54.50
2019-03-23T03:17:49.719Z,53.47
2019-03-23T03:20:18.961Z,47.07
2019-03-23T03:22:48.030Z,53.63
2019-03-23T03:25:17.149Z,53.43
2019-03-23T03:27:46.254Z,54.33
2019-03-23T03:30:15.567Z,56.03
2019-03-23T03:32:44.629Z,51.10
2019-03-23T03:35:13.881Z,44.00
2019-03-23T03:37:56.035Z,48.97
2019-03-23T03:40:14.238Z,42.07
2019-03-23T03:42:43.426Z,37.03
2019-03-23T03:45:15.550Z,43.70
2019-03-23T03:47:44.678Z,45.40
2019-03-23T03:50:14.019Z,42.13
2019-03-23T03:52:43.102Z,43.70
2019-03-23T03:55:12.294Z,44.90
2019-03-23T03:57:41.619Z,44.97
2019-03-23T04:00:11.481Z,44.93
2019-03-23T04:02:41.633Z,49.40
2019-03-23T04:05:11.084Z,53.57
2019-03-23T04:07:40.288Z,51.33
2019-03-23T04:10:10.605Z,43.20
2019-03-23T04:12:39.835Z,42.30
2019-03-23T04:15:10.626Z,35.17
2019-03-23T04:17:40.000Z,34.07
2019-03-23T04:20:10.548Z,34.37
2019-03-23T04:22:39.768Z,43.07
2019-03-23T04:25:10.634Z,41.20
2019-03-23T04:27:39.962Z,39.93
2019-03-23T04:30:11.171Z,38.00
2019-03-23T04:32:40.455Z,44.13
2019-03-23T04:35:10.287Z,39.97
2019-03-23T04:37:39.444Z,36.10
2019-03-23T04:40:11.016Z,42.33
2019-03-23T04:42:40.249Z,41.20
2019-03-23T04:45:10.663Z,37.57
2019-03-23T04:47:39.950Z,46.13
2019-03-23T04:50:11.384Z,41.30
2019-03-23T04:52:40.581Z,46.13
2019-03-23T04:55:11.831Z,44.13
2019-03-23T04:57:41.642Z,45.03
2019-03-23T05:00:16.086Z,40.23
2019-03-23T05:02:45.295Z,43.60
2019-03-23T05:05:14.543Z,46.30
2019-03-23T05:07:43.735Z,42.13
2019-03-23T05:10:13.347Z,45.00
2019-03-23T05:12:42.652Z,44.73
2019-03-23T05:15:11.852Z,45.13
2019-03-23T05:17:41.039Z,49.60
2019-03-23T05:20:11.415Z,48.83
2019-03-23T05:22:40.613Z,48.93
2019-03-23T05:25:12.730Z,46.70
2019-03-23T05:27:41.883Z,48.07
2019-03-23T05:30:11.089Z,46.67
2019-03-23T05:32:40.228Z,49.97
2019-03-23T05:35:09.482Z,48.27
2019-03-23T05:37:38.624Z,50.63
2019-03-23T05:40:08.027Z,50.50
2019-03-23T05:42:37.272Z,47.77
2019-03-23T05:45:07.369Z,51.77
2019-03-23T05:47:36.510Z,48.83
2019-03-23T05:50:09.369Z,47.47
2019-03-23T05:52:38.577Z,45.83
2019-03-23T05:55:08.085Z,46.47
2019-03-23T05:57:37.267Z,47.33
2019-03-23T06:00:09.565Z,50.10
2019-03-23T06:02:38.843Z,46.63
2019-03-23T06:05:11.975Z,46.57
2019-03-23T06:07:41.077Z,45.87
2019-03-23T06:10:10.282Z,46.97
2019-03-23T06:12:39.370Z,46.40
2019-03-23T06:15:08.775Z,44.33
2019-03-23T06:17:37.907Z,43.23
2019-03-23T06:20:08.451Z,45.00
2019-03-23T06:22:37.568Z,45.53
2019-03-23T06:25:07.173Z,45.20
2019-03-23T06:27:36.415Z,43.90
2019-03-23T06:30:08.415Z,43.73
2019-03-23T06:32:37.626Z,45.33
2019-03-23T06:35:08.474Z,41.40
2019-03-23T06:37:37.681Z,42.90
2019-03-23T06:40:09.558Z,44.20
2019-03-23T06:42:38.837Z,44.60
2019-03-23T06:45:10.213Z,43.67
2019-03-23T06:47:39.369Z,45.07
2019-03-23T06:50:10.640Z,46.60
2019-03-23T06:52:39.712Z,42.57
2019-03-23T06:55:09.727Z,43.13
2019-03-23T06:57:38.996Z,42.53
2019-03-23T07:00:11.194Z,43.10
2019-03-23T07:02:40.420Z,43.27
2019-03-23T07:05:10.326Z,44.60
2019-03-23T07:07:39.854Z,43.70
2019-03-23T07:10:11.985Z,43.03
2019-03-23T07:12:41.231Z,43.80
2019-03-23T07:15:19.958Z,43.80
2019-03-23T07:17:45.415Z,45.03
2019-03-23T07:20:15.314Z,43.10
2019-03-23T07:22:44.626Z,45.80
2019-03-23T07:25:14.823Z,43.23
2019-03-23T07:27:44.150Z,43.93
2019-03-23T07:30:17.322Z,44.10
2019-03-23T07:32:46.537Z,42.67
2019-03-23T07:35:16.385Z,44.47
2019-03-23T07:37:45.543Z,41.80
2019-03-23T07:40:15.217Z,41.50
2019-03-23T07:42:44.407Z,42.77
2019-03-23T07:45:15.009Z,41.73
2019-03-23T07:47:44.176Z,42.40
2019-03-23T07:50:14.634Z,38.90
2019-03-23T07:52:43.831Z,40.83
2019-03-23T07:55:17.099Z,38.40
2019-03-23T07:57:46.857Z,38.00
2019-03-23T08:00:21.290Z,41.53
2019-03-23T08:02:50.580Z,42.87
2019-03-23T08:05:26.141Z,41.40
2019-03-23T08:07:55.282Z,40.37
2019-03-23T08:10:33.266Z,41.27
2019-03-23T08:13:02.917Z,39.60
2019-03-23T08:15:32.291Z,37.87
2019-03-23T08:18:01.557Z,36.27
2019-03-23T08:20:30.757Z,35.37
2019-03-23T08:22:59.907Z,32.30
2019-03-23T08:25:29.222Z,35.77
2019-03-23T08:27:58.460Z,30.80
2019-03-23T08:30:27.604Z,32.67
2019-03-23T08:32:56.847Z,31.70
2019-03-23T08:35:26.069Z,29.70
2019-03-23T08:37:55.292Z,30.40
2019-03-23T08:40:24.483Z,31.60
2019-03-23T08:42:53.776Z,30.67
2019-03-23T08:45:23.202Z,30.37
2019-03-23T08:47:52.390Z,29.90
2019-03-23T08:50:21.462Z,30.90
2019-03-23T08:52:50.662Z,27.87
2019-03-23T08:55:21.894Z,28.47
2019-03-23T08:57:50.762Z,27.33
2019-03-23T09:00:20.015Z,28.17
2019-03-23T09:02:49.197Z,27.57
2019-03-23T09:05:18.403Z,25.87
2019-03-23T09:07:47.627Z,26.80
2019-03-23T09:10:16.931Z,21.00
2019-03-23T09:12:46.152Z,20.10
2019-03-23T09:15:15.369Z,18.83
2019-03-23T09:17:44.623Z,17.80
2019-03-23T09:20:14.126Z,17.20
2019-03-23T09:22:43.283Z,17.00
2019-03-23T09:25:12.546Z,18.43
2019-03-23T09:27:41.710Z,18.23
2019-03-23T09:30:12.598Z,18.40
2019-03-23T09:32:41.785Z,18.17
2019-03-23T09:35:10.989Z,18.53
2019-03-23T09:37:40.222Z,19.67
2019-03-23T09:40:11.042Z,20.83
2019-03-23T09:42:40.585Z,18.40
2019-03-23T09:45:10.033Z,19.63
2019-03-23T09:47:39.275Z,20.27
2019-03-23T09:50:10.680Z,19.17
2019-03-23T09:52:39.906Z,19.03
2019-03-23T09:55:09.474Z,17.53
2019-03-23T09:57:40.055Z,17.40
2019-03-23T10:00:11.908Z,15.90
2019-03-23T10:02:41.162Z,16.83
2019-03-23T10:05:10.365Z,17.10
2019-03-23T10:07:39.597Z,17.23
2019-03-23T10:10:09.154Z,17.23
2019-03-23T10:12:38.388Z,17.13
2019-03-23T10:15:08.805Z,16.60
2019-03-23T10:17:38.055Z,17.13
2019-03-23T10:20:07.958Z,17.37
2019-03-23T10:22:37.248Z,17.47
2019-03-23T10:25:08.871Z,17.37
2019-03-23T10:27:38.094Z,18.20
2019-03-23T10:30:09.732Z,17.40
2019-03-23T10:32:39.023Z,16.73
2019-03-23T10:35:10.022Z,16.57
2019-03-23T10:37:39.237Z,15.80
2019-03-23T10:40:10.777Z,15.90
2019-03-23T10:42:39.994Z,15.27
2019-03-23T10:45:10.413Z,15.77
2019-03-23T10:47:39.776Z,14.83
2019-03-23T10:50:09.665Z,14.90
2019-03-23T10:52:38.820Z,13.50
2019-03-23T10:55:08.308Z,14.77
2019-03-23T10:57:37.559Z,13.37
2019-03-23T11:00:12.032Z,14.63
2019-03-23T11:02:41.279Z,13.63
2019-03-23T11:05:11.022Z,13.87
2019-03-23T11:07:40.284Z,12.33
2019-03-23T11:10:12.396Z,14.23
2019-03-23T11:12:41.616Z,13.57
2019-03-23T11:15:11.451Z,12.67
2019-03-23T11:17:40.596Z,12.60
2019-03-23T11:20:16.527Z,12.30
2019-03-23T11:22:45.946Z,12.57
2019-03-23T11:25:15.727Z,11.77
2019-03-23T11:27:45.035Z,12.63
2019-03-23T11:30:15.198Z,11.90
2019-03-23T11:32:44.554Z,12.13
2019-03-23T11:35:14.375Z,12.30
2019-03-23T11:37:43.772Z,13.33
2019-03-23T11:40:13.287Z,12.87
2019-03-23T11:42:49.860Z,13.07
2019-03-23T11:45:14.144Z,12.43
2019-03-23T11:47:43.365Z,11.53
2019-03-23T11:50:13.197Z,11.33
2019-03-23T11:52:42.450Z,11.20
2019-03-23T11:55:12.316Z,10.13
2019-03-23T11:57:41.538Z,9.70
2019-03-23T12:00:14.070Z,10.40
2019-03-23T12:02:43.334Z,10.53
2019-03-23T12:05:12.895Z,10.17
2019-03-23T12:07:42.267Z,11.50
2019-03-23T12:10:13.591Z,10.60
2019-03-23T12:12:42.827Z,10.83
2019-03-23T12:15:13.268Z,10.50
2019-03-23T12:17:42.525Z,11.30
2019-03-23T12:20:11.951Z,11.00
2019-03-23T12:22:41.225Z,10.60
2019-03-23T12:25:10.962Z,10.77
2019-03-23T12:27:40.280Z,10.90
2019-03-23T12:30:18.866Z,10.57
2019-03-23T12:32:49.558Z,9.40
2019-03-23T12:35:18.719Z,9.60
2019-03-23T12:37:47.983Z,9.53
2019-03-23T12:40:17.511Z,9.00
2019-03-23T12:42:46.651Z,9.20
2019-03-23T12:45:16.283Z,9.73
2019-03-23T12:47:45.505Z,9.80
2019-03-23T12:50:15.097Z,9.53
2019-03-23T12:52:44.297Z,10.00
2019-03-23T12:55:13.788Z,9.20
2019-03-23T12:57:43.005Z,8.83
2019-03-23T13:00:14.880Z,9.07
2019-03-23T13:02:44.290Z,8.07
2019-03-23T13:05:13.698Z,8.43
2019-03-23T13:07:42.952Z,8.10
2019-03-23T13:10:13.673Z,6.83
2019-03-23T13:12:42.979Z,8.00
2019-03-23T13:15:15.140Z,8.80
2019-03-23T13:17:44.422Z,7.43
2019-03-23T13:20:14.569Z,7.80
2019-03-23T13:22:44.117Z,7.80
2019-03-23T13:25:13.335Z,8.90
2019-03-23T13:27:42.538Z,6.93
2019-03-23T13:30:14.685Z,6.57
2019-03-23T13:32:43.916Z,7.03
2019-03-23T13:35:13.208Z,7.23
2019-03-23T13:37:42.558Z,7.23
2019-03-23T13:40:12.977Z,6.60
2019-03-23T13:42:42.273Z,6.50
2019-03-23T13:45:12.799Z,7.40
2019-03-23T13:47:42.072Z,6.17
2019-03-23T13:50:12.951Z,5.53
2019-03-23T13:52:42.273Z,6.57
2019-03-23T13:55:26.682Z,8.40
2019-03-23T13:57:56.064Z,6.97
2019-03-23T14:00:25.369Z,6.63
2019-03-23T14:02:54.564Z,6.63
2019-03-23T14:05:24.180Z,6.60
2019-03-23T14:07:53.537Z,6.77
2019-03-23T14:10:23.044Z,6.13
2019-03-23T14:12:52.321Z,6.00
2019-03-23T14:15:21.596Z,7.30
2019-03-23T14:17:50.735Z,6.20
2019-03-23T14:20:20.063Z,6.63
2019-03-23T14:22:49.293Z,5.90
2019-03-23T14:25:18.507Z,5.57
2019-03-23T14:27:47.684Z,5.40
2019-03-23T14:30:16.885Z,4.93
2019-03-23T14:32:46.199Z,4.60
2019-03-23T14:35:15.406Z,4.73
2019-03-23T14:37:44.720Z,4.93
2019-03-23T14:40:14.519Z,5.20
2019-03-23T14:42:43.707Z,5.37
2019-03-23T14:45:13.301Z,5.40
2019-03-23T14:47:42.552Z,4.87
2019-03-23T14:50:11.964Z,4.80
2019-03-23T14:52:41.118Z,5.13
2019-03-23T14:55:10.744Z,4.67
2019-03-23T14:57:40.569Z,4.60
2019-03-23T15:00:10.908Z,5.03
2019-03-23T15:02:40.275Z,4.80
2019-03-23T15:05:09.617Z,4.83
2019-03-23T15:07:38.764Z,4.67
2019-03-23T15:10:09.872Z,4.13
2019-03-23T15:12:39.177Z,4.30
2019-03-23T15:15:08.719Z,4.37
2019-03-23T15:17:37.853Z,4.83
2019-03-23T15:20:08.189Z,4.60
2019-03-23T15:22:37.398Z,4.30
2019-03-23T15:25:07.118Z,4.63
2019-03-23T15:27:36.351Z,4.47
2019-03-23T15:30:09.864Z,4.50
2019-03-23T15:32:40.525Z,4.70
2019-03-23T15:35:10.083Z,4.30
2019-03-23T15:37:39.223Z,4.60
2019-03-23T15:40:09.333Z,5.07
2019-03-23T15:42:38.561Z,5.50
2019-03-23T15:45:09.567Z,4.80
2019-03-23T15:47:38.799Z,4.97
2019-03-23T15:50:09.226Z,4.80
2019-03-23T15:52:38.458Z,4.10
2019-03-23T15:55:08.162Z,4.63
2019-03-23T15:57:37.497Z,4.00
2019-03-23T16:00:09.288Z,4.17
2019-03-23T16:02:38.593Z,4.37
2019-03-23T16:05:08.232Z,4.80
2019-03-23T16:07:37.446Z,4.50
2019-03-23T16:10:08.976Z,5.10
2019-03-23T16:12:38.198Z,5.17
2019-03-23T16:15:12.167Z,5.70
2019-03-23T16:17:41.361Z,5.80
2019-03-23T16:20:13.494Z,5.57
2019-03-23T16:22:42.844Z,5.87
2019-03-23T16:25:12.549Z,6.10
2019-03-23T16:27:41.786Z,6.30
2019-03-23T16:30:12.761Z,6.50
2019-03-23T16:32:41.916Z,6.87
2019-03-23T16:35:13.087Z,7.57
2019-03-23T16:37:42.437Z,7.10
2019-03-23T16:40:12.263Z,7.40
2019-03-23T16:42:45.577Z,7.83
2019-03-23T16:45:13.290Z,7.30
2019-03-23T16:47:42.529Z,6.53
2019-03-23T16:50:12.383Z,7.73
2019-03-23T16:52:41.603Z,7.20
2019-03-23T16:55:11.317Z,7.13
2019-03-23T16:57:43.235Z,7.73
2019-03-23T17:00:14.469Z,10.10
2019-03-23T17:02:43.712Z,9.27
2019-03-23T17:05:13.471Z,10.93
2019-03-23T17:07:42.732Z,8.83
2019-03-23T17:10:12.259Z,8.77
2019-03-23T17:12:41.545Z,8.07
2019-03-23T17:15:12.090Z,8.50
2019-03-23T17:17:41.243Z,8.87
2019-03-23T17:20:10.927Z,8.27
2019-03-23T17:22:40.233Z,8.47
2019-03-23T17:25:10.210Z,7.87
2019-03-23T17:27:39.464Z,7.67
2019-03-23T17:30:09.802Z,7.57
2019-03-23T17:32:39.475Z,8.27
2019-03-23T17:35:08.859Z,8.83
2019-03-23T17:37:38.044Z,7.87
2019-03-23T17:40:08.367Z,7.77
2019-03-23T17:42:37.634Z,7.93
2019-03-23T17:45:10.068Z,8.57
2019-03-23T17:47:39.365Z,9.20
2019-03-23T17:50:09.135Z,9.23
2019-03-23T17:52:38.289Z,8.63
2019-03-23T17:55:07.933Z,9.23
2019-03-23T17:57:37.295Z,8.87
2019-03-23T18:00:08.279Z,8.37
2019-03-23T18:02:38.227Z,8.33
2019-03-23T18:05:08.505Z,7.50
2019-03-23T18:07:37.709Z,8.13
2019-03-23T18:10:08.008Z,8.30
2019-03-23T18:12:37.246Z,11.43
2019-03-23T18:15:08.742Z,8.30
2019-03-23T18:17:38.038Z,7.60
2019-03-23T18:20:08.468Z,8.17
2019-03-23T18:22:37.686Z,8.87
2019-03-23T18:25:08.289Z,8.97
2019-03-23T18:27:37.476Z,9.30
2019-03-23T18:30:15.421Z,11.33
2019-03-23T18:32:44.756Z,10.60
2019-03-23T18:35:13.965Z,10.40
2019-03-23T18:37:43.304Z,10.10
2019-03-23T18:40:12.686Z,9.67
2019-03-23T18:42:41.927Z,9.23
2019-03-23T18:45:11.417Z,9.80
2019-03-23T18:47:40.587Z,9.80
2019-03-23T18:50:09.904Z,10.77
2019-03-23T18:52:39.152Z,10.70
2019-03-23T18:55:08.813Z,11.23
2019-03-23T18:57:38.451Z,11.17
2019-03-23T19:00:09.253Z,12.97
2019-03-23T19:02:38.584Z,11.77
2019-03-23T19:05:08.191Z,11.03
2019-03-23T19:07:37.366Z,10.83
2019-03-23T19:10:07.838Z,18.70
2019-03-23T19:12:37.046Z,13.43
2019-03-23T19:15:07.574Z,12.10
2019-03-23T19:17:36.847Z,11.90
2019-03-23T19:20:08.956Z,10.67
2019-03-23T19:22:38.947Z,11.33
2019-03-23T19:25:17.004Z,11.50
2019-03-23T19:27:39.481Z,10.80
2019-03-23T19:30:09.269Z,10.97
2019-03-23T19:32:38.718Z,11.40
2019-03-23T19:35:08.671Z,11.33
2019-03-23T19:37:38.982Z,10.73
2019-03-23T19:40:09.202Z,10.53
2019-03-23T19:42:38.496Z,10.17
2019-03-23T19:45:08.235Z,11.57
2019-03-23T19:47:37.493Z,10.03
2019-03-23T19:50:08.323Z,10.27
2019-03-23T19:52:37.625Z,10.00
2019-03-23T19:55:10.311Z,22.20
2019-03-23T19:57:39.555Z,16.90
2019-03-23T20:00:11.023Z,15.57
2019-03-23T20:02:40.286Z,19.00
2019-03-23T20:05:09.863Z,24.30
2019-03-23T20:07:39.215Z,19.23
2019-03-23T20:10:10.274Z,17.87
2019-03-23T20:12:39.620Z,19.97
2019-03-23T20:15:09.413Z,18.50
2019-03-23T20:17:38.990Z,17.67
2019-03-23T20:20:09.739Z,17.67
2019-03-23T20:22:39.133Z,15.77
2019-03-23T20:25:08.985Z,14.60
2019-03-23T20:27:38.329Z,16.23
2019-03-23T20:30:11.545Z,17.17
2019-03-23T20:32:40.853Z,15.40
2019-03-23T20:35:10.654Z,16.13
2019-03-23T20:37:39.974Z,15.00
2019-03-23T20:40:10.185Z,14.67
2019-03-23T20:42:39.689Z,14.87
2019-03-23T20:45:10.512Z,14.43
2019-03-23T20:47:41.484Z,14.07
2019-03-23T20:50:10.822Z,16.17
2019-03-23T20:52:42.098Z,21.40
2019-03-23T20:55:17.070Z,21.50
2019-03-23T20:57:46.627Z,21.97
2019-03-23T21:00:16.136Z,21.53
2019-03-23T21:02:45.449Z,22.17
2019-03-23T21:05:14.817Z,20.00
2019-03-23T21:07:44.261Z,18.40
2019-03-23T21:10:13.809Z,17.27
2019-03-23T21:12:43.021Z,15.03
2019-03-23T21:15:12.349Z,16.80
2019-03-23T21:17:51.044Z,16.93
2019-03-23T21:20:12.836Z,16.30
2019-03-23T21:22:41.983Z,16.10
2019-03-23T21:25:11.452Z,33.13
2019-03-23T21:27:40.607Z,37.23
2019-03-23T21:30:13.300Z,28.90
2019-03-23T21:32:42.599Z,22.23
2019-03-23T21:35:12.430Z,20.40
2019-03-23T21:37:41.720Z,19.70
2019-03-23T21:40:11.002Z,19.57
2019-03-23T21:42:40.229Z,17.50
2019-03-23T21:45:09.930Z,21.97
2019-03-23T21:47:39.182Z,22.13
2019-03-23T21:50:09.598Z,34.33
2019-03-23T21:52:39.022Z,37.50
2019-03-23T21:55:09.201Z,39.77
2019-03-23T21:57:38.585Z,72.70
2019-03-23T22:00:09.011Z,46.73
2019-03-23T22:02:38.303Z,40.53
2019-03-23T22:05:07.978Z,37.57
2019-03-23T22:07:37.218Z,36.17
2019-03-23T22:10:08.298Z,32.87
2019-03-23T22:12:37.808Z,26.37
2019-03-23T22:15:08.646Z,36.00
2019-03-23T22:17:38.009Z,55.33
2019-03-23T22:20:08.773Z,52.40
2019-03-23T22:22:38.260Z,46.90
2019-03-23T22:25:08.217Z,45.43
2019-03-23T22:27:38.427Z,44.90
2019-03-23T22:30:14.694Z,48.57
2019-03-23T22:32:44.050Z,39.37
2019-03-23T22:35:13.812Z,39.60
2019-03-23T22:37:43.069Z,44.90
2019-03-23T22:40:13.304Z,39.77
2019-03-23T22:42:42.658Z,37.23
2019-03-23T22:45:13.198Z,36.20
2019-03-23T22:47:42.669Z,33.50
2019-03-23T22:50:11.898Z,34.70
2019-03-23T22:52:41.178Z,31.57
2019-03-23T22:55:10.411Z,31.67
2019-03-23T22:57:39.628Z,26.40
2019-03-23T23:00:13.491Z,48.47
2019-03-23T23:02:42.785Z,64.40
2019-03-23T23:05:12.085Z,60.73
2019-03-23T23:07:42.030Z,50.73
2019-03-23T23:10:11.466Z,47.60
2019-03-23T23:12:40.760Z,46.53
2019-03-23T23:15:10.305Z,44.03
2019-03-23T23:17:39.644Z,40.93
2019-03-23T23:20:09.370Z,36.13
2019-03-23T23:22:38.691Z,34.17
2019-03-23T23:25:08.380Z,34.17
2019-03-23T23:27:37.599Z,30.70
2019-03-23T23:30:11.217Z,28.17
2019-03-23T23:32:40.551Z,32.03
2019-03-23T23:35:10.471Z,26.57
2019-03-23T23:37:39.769Z,26.40
2019-03-23T23:40:10.056Z,24.90
2019-03-23T23:42:39.315Z,30.33
2019-03-23T23:45:15.247Z,36.47
2019-03-23T23:47:40.310Z,40.07
2019-03-23T23:50:10.224Z,41.50
2019-03-23T23:52:39.511Z,39.43
2019-03-23T23:55:09.056Z,33.17
2019-03-23T23:57:38.347Z,35.17
